Time;durP1;ratioP1;P1;durP2;ratioP2;P2;SDS_P1;SDS_P2;PMS_P1;PMS_P2;Temp;Humidity;BMP_temperature;BMP_pressure;BME280_temperature;BME280_humidity;BME280_pressure;Samples;Min_cycle;Max_cycle;Signal;HPM_P1;HPM_P2
2023/01/18 00:01:21;;;;;;;;;;;;;;;;;;6268364;22;20218;-85
2023/01/18 00:03:47;;;;;;;;;;;;;;;;;;6273528;22;19922;-85
2023/01/18 00:06:13;;;;;;;;;;;;;;;;;;6296815;22;19914;-85
2023/01/18 00:08:41;;;;;;;;;;;;;;;;;;6275138;22;20343;-85
2023/01/18 00:11:07;;;;;;;;;;;;;;;;;;6272548;22;19919;-85
2023/01/18 00:13:33;;;;;;;;;;;;;;;;;;6273527;22;19922;-85
2023/01/18 00:15:58;;;;;;;;;;;;;;;;;;6274317;22;19919;-85
2023/01/18 00:18:24;;;;;;;;;;;;;;;;;;6271794;22;19997;-85
2023/01/18 00:20:50;;;;;;;;;;;;;;;;;;6274049;22;19924;-85
2023/01/18 00:23:16;;;;;;;;;;;;;;;;;;6268049;22;19922;-85
2023/01/18 00:25:42;;;;;;;;;;;;;;;;;;6296228;22;20547;-84
2023/01/18 00:28:08;;;;;;;;;;;;;;;;;;6324704;22;19919;-84
2023/01/18 00:30:34;;;;;;;;;;;;;;;;;;6327503;22;20283;-85
2023/01/18 00:33:00;;;;;;;;;;;;;;;;;;6327173;22;19918;-85
2023/01/18 00:35:26;;;;;;;;;;;;;;;;;;6301646;22;19919;-85
2023/01/18 00:37:52;;;;;;;;;;;;;;;;;;6297918;22;19996;-85
2023/01/18 00:40:18;;;;;;;;;;;;;;;;;;6296435;22;20667;-85
2023/01/18 00:45:29;;;;;;;;;;;;;;;;;;6296252;22;19930;-85
2023/01/18 00:47:55;;;;;;;;;;;;;;;;;;6297180;22;19918;-83
2023/01/18 00:50:21;;;;;;;;;;;;;;;;;;6272598;22;19922;-82
2023/01/18 00:52:47;;;;;;;;;;;;;;;;;;6297374;22;19975;-83
2023/01/18 00:55:13;;;;;;;;;;;;;;;;;;6297490;22;19918;-83
2023/01/18 00:57:39;;;;;;;;;;;;;;;;;;6271990;22;19918;-83
2023/01/18 01:00:08;;;;;;;;;;;;;;;;;;6296182;22;19918;-83
2023/01/18 01:02:38;;;;;;;;;;;;;;;;;;6297087;22;19923;-83
2023/01/18 01:07:49;;;;;;;;;;;;;;;;;;6296157;22;19925;-83
2023/01/18 01:10:15;;;;;;;;;;;;;;;;;;6269732;22;19966;-83
2023/01/18 01:26:28;;;;;;;;;;;;;;;;;;6299873;22;19926;-83
2023/01/18 01:28:54;;;;;;;;;;;;;;;;;;6272593;22;19919;-83
2023/01/18 01:31:20;;;;;;;;;;;;;;;;;;6295270;22;19961;-83
2023/01/18 01:33:49;;;;;;;;;;;;;;;;;;6272243;22;19918;-83
2023/01/18 01:36:15;;;;;;;;;;;;;;;;;;6269734;22;20216;-83
2023/01/18 01:38:41;;;;;;;;;;;;;;;;;;6296946;22;19919;-83
2023/01/18 01:41:07;;;;;;;;;;;;;;;;;;6294704;22;19919;-83
2023/01/18 01:43:33;;;;;;;;;;;;;;;;;;6270191;22;19945;-82
2023/01/18 01:46:02;;;;;;;;;;;;;;;;;;6296849;22;19919;-83
2023/01/18 01:48:28;;;;;;;;;;;;;;;;;;6269556;22;20350;-83
2023/01/18 01:50:54;;;;;;;;;;;;;;;;;;6298331;22;19989;-83
2023/01/18 01:53:20;;;;;;;;;;;;;;;;;;6297788;22;20672;-83
2023/01/18 01:55:46;;;;;;;;;;;;;;;;;;6273445;22;19980;-83
2023/01/18 01:58:12;;;;;;;;;;;;;;;;;;6297758;22;19922;-83
2023/01/18 02:00:38;;;;;;;;;;;;;;;;;;6268560;22;19918;-83
2023/01/18 02:03:04;;;;;;;;;;;;;;;;;;6269518;22;19922;-83
2023/01/18 02:05:30;;;;;;;;;;;;;;;;;;6297076;22;19950;-83
2023/01/18 02:07:56;;;;;;;;;;;;;;;;;;6295873;22;19915;-83
2023/01/18 02:10:22;;;;;;;;;;;;;;;;;;6269303;22;19922;-83
2023/01/18 02:12:48;;;;;;;;;;;;;;;;;;6269890;22;19923;-83
2023/01/18 02:15:14;;;;;;;;;;;;;;;;;;6269133;22;19918;-83
2023/01/18 02:17:40;;;;;;;;;;;;;;;;;;6295871;22;19914;-83
2023/01/18 02:20:06;;;;;;;;;;;;;;;;;;6267169;22;19990;-83
2023/01/18 02:22:32;;;;;;;;;;;;;;;;;;6294490;22;19918;-83
2023/01/18 02:24:58;;;;;;;;;;;;;;;;;;6293776;22;19953;-83
2023/01/18 02:27:24;;;;;;;;;;;;;;;;;;6294105;22;19918;-83
2023/01/18 02:29:49;;;;;;;;;;;;;;;;;;6270328;22;19919;-83
2023/01/18 02:32:15;;;;;;;;;;;;;;;;;;6293672;22;19915;-83
2023/01/18 02:34:41;;;;;;;;;;;;;;;;;;6295205;22;20401;-83
2023/01/18 02:37:07;;;;;;;;;;;;;;;;;;6269364;22;19918;-83
2023/01/18 02:39:37;;;;;;;;;;;;;;;;;;6297110;22;19925;-83
2023/01/18 02:47:32;;;;;;;;;;;;;;;;;;6298280;22;19918;-83
2023/01/18 02:49:58;;;;;;;;;;;;;;;;;;6270996;22;20221;-83
2023/01/18 02:52:24;;;;;;;;;;;;;;;;;;6270108;22;20040;-83
2023/01/18 02:54:50;;;;;;;;;;;;;;;;;;6273816;22;20430;-83
2023/01/18 02:57:16;;;;;;;;;;;;;;;;;;6293283;22;19925;-84
2023/01/18 02:59:42;;;;;;;;;;;;;;;;;;6272354;22;20359;-83
2023/01/18 03:02:08;;;;;;;;;;;;;;;;;;6294723;22;19922;-83
2023/01/18 03:04:34;;;;;;;;;;;;;;;;;;6271643;22;20285;-86
2023/01/18 03:07:00;;;;;;;;;;;;;;;;;;6295895;22;19926;-86
2023/01/18 03:09:26;;;;;;;;;;;;;;;;;;6296630;22;20239;-86
2023/01/18 03:11:52;;;;;;;;;;;;;;;;;;6295200;22;19923;-86
2023/01/18 03:14:18;;;;;;;;;;;;;;;;;;6269513;22;19918;-85
2023/01/18 03:16:57;;;;;;;;;;;;;;;;;;6269560;22;19918;-85
2023/01/18 03:22:09;;;;;;;;;;;;;;;;;;6296515;22;20614;-85
2023/01/18 03:24:40;;;;;;;;;;;;;;;;;;6272859;22;20548;-85
2023/01/18 03:35:25;;;;;;;;;;;;;;;;;;6293767;22;19974;-85
2023/01/18 03:37:53;;;;;;;;;;;;;;;;;;6298103;22;19925;-86
2023/01/18 03:40:19;;;;;;;;;;;;;;;;;;6296437;22;19918;-85
2023/01/18 03:42:44;;;;;;;;;;;;;;;;;;6271531;22;20052;-86
2023/01/18 03:45:10;;;;;;;;;;;;;;;;;;6296183;22;20335;-86
2023/01/18 03:47:36;;;;;;;;;;;;;;;;;;6297307;22;19918;-85
2023/01/18 03:50:02;;;;;;;;;;;;;;;;;;6295441;22;19989;-85
2023/01/18 03:52:28;;;;;;;;;;;;;;;;;;6299797;22;19919;-85
2023/01/18 03:54:54;;;;;;;;;;;;;;;;;;6274088;22;19969;-86
2023/01/18 03:57:20;;;;;;;;;;;;;;;;;;6296495;22;19925;-85
2023/01/18 03:59:46;;;;;;;;;;;;;;;;;;6298585;22;19915;-86
2023/01/18 04:02:12;;;;;;;;;;;;;;;;;;6295230;22;20244;-85
2023/01/18 04:04:38;;;;;;;;;;;;;;;;;;6298221;22;19918;-85
2023/01/18 04:07:04;;;;;;;;;;;;;;;;;;6268632;22;19914;-85
2023/01/18 04:09:30;;;;;;;;;;;;;;;;;;6297629;22;20292;-85
2023/01/18 04:11:56;;;;;;;;;;;;;;;;;;6296809;22;19918;-85
2023/01/18 04:14:22;;;;;;;;;;;;;;;;;;6297465;22;19922;-85
2023/01/18 04:16:48;;;;;;;;;;;;;;;;;;6298578;22;19918;-85
2023/01/18 04:19:14;;;;;;;;;;;;;;;;;;6296171;22;19918;-86
2023/01/18 04:21:40;;;;;;;;;;;;;;;;;;6272526;22;19976;-85
2023/01/18 04:24:06;;;;;;;;;;;;;;;;;;6298341;22;20316;-85
2023/01/18 04:26:35;;;;;;;;;;;;;;;;;;6298996;22;19922;-85
2023/01/18 04:29:01;;;;;;;;;;;;;;;;;;6271578;22;19942;-86
2023/01/18 04:31:27;;;;;;;;;;;;;;;;;;6298644;22;19925;-85
2023/01/18 04:33:53;;;;;;;;;;;;;;;;;;6274655;22;19941;-85
2023/01/18 04:36:19;;;;;;;;;;;;;;;;;;6296366;22;19922;-85
2023/01/18 04:38:45;;;;;;;;;;;;;;;;;;6272995;22;19922;-85
2023/01/18 04:41:11;;;;;;;;;;;;;;;;;;6323959;22;19919;-85
2023/01/18 04:43:37;;;;;;;;;;;;;;;;;;6297548;22;19972;-85
2023/01/18 04:46:03;;;;;;;;;;;;;;;;;;6296352;22;19937;-85
2023/01/18 04:48:29;;;;;;;;;;;;;;;;;;6297631;22;20510;-85
2023/01/18 04:50:55;;;;;;;;;;;;;;;;;;6294610;22;19923;-85
2023/01/18 04:53:21;;;;;;;;;;;;;;;;;;6269926;22;19919;-85
2023/01/18 04:55:47;;;;;;;;;;;;;;;;;;6298130;22;19918;-85
2023/01/18 04:58:14;;;;;;;;;;;;;;;;;;6295598;22;20396;-85
2023/01/18 05:00:40;;;;;;;;;;;;;;;;;;6268635;22;19914;-85
2023/01/18 05:03:06;;;;;;;;;;;;;;;;;;6296109;22;19926;-85
2023/01/18 05:05:31;;;;;;;;;;;;;;;;;;6273163;22;19963;-85
2023/01/18 05:07:57;;;;;;;;;;;;;;;;;;6271558;22;19925;-85
2023/01/18 05:10:23;;;;;;;;;;;;;;;;;;6267654;22;20247;-85
2023/01/18 05:12:49;;;;;;;;;;;;;;;;;;6297021;22;19918;-85
2023/01/18 05:15:17;;;;;;;;;;;;;;;;;;6294300;22;20354;-85
2023/01/18 05:17:43;;;;;;;;;;;;;;;;;;6272602;22;19918;-85
2023/01/18 05:20:08;;;;;;;;;;;;;;;;;;6293480;22;19918;-85
2023/01/18 05:22:36;;;;;;;;;;;;;;;;;;6297384;22;20430;-85
2023/01/18 05:25:02;;;;;;;;;;;;;;;;;;6270772;22;20338;-85
2023/01/18 05:27:28;;;;;;;;;;;;;;;;;;6271134;22;20021;-85
2023/01/18 05:29:53;;;;;;;;;;;;;;;;;;6296668;22;19914;-85
2023/01/18 05:32:20;;;;;;;;;;;;;;;;;;6267278;22;19918;-85
2023/01/18 05:34:45;;;;;;;;;;;;;;;;;;6270050;22;19925;-82
2023/01/18 05:37:11;;;;;;;;;;;;;;;;;;6271040;22;20001;-83
2023/01/18 05:39:37;;;;;;;;;;;;;;;;;;6274004;22;19983;-82
2023/01/18 05:42:04;;;;;;;;;;;;;;;;;;6269623;22;19923;-83
2023/01/18 05:44:30;;;;;;;;;;;;;;;;;;6297062;22;19919;-82
2023/01/18 05:46:56;;;;;;;;;;;;;;;;;;6270218;22;19926;-83
2023/01/18 05:49:22;;;;;;;;;;;;;;;;;;6323694;22;19979;-82
2023/01/18 05:51:48;;;;;;;;;;;;;;;;;;6325675;22;20239;-82
2023/01/18 05:54:14;;;;;;;;;;;;;;;;;;6297213;22;20299;-83
2023/01/18 05:56:41;;;;;;;;;;;;;;;;;;6329494;22;19986;-82
2023/01/18 05:59:07;;;;;;;;;;;;;;;;;;6296591;22;20315;-82
2023/01/18 06:01:33;;;;;;;;;;;;;;;;;;6269750;22;19941;-83
2023/01/18 06:03:59;;;;;;;;;;;;;;;;;;6296691;22;19926;-82
2023/01/18 06:06:25;;;;;;;;;;;;;;;;;;6291270;22;19925;-82
2023/01/18 06:08:51;;;;;;;;;;;;;;;;;;6267357;22;19958;-83
2023/01/18 06:11:17;;;;;;;;;;;;;;;;;;6289968;22;19919;-82
2023/01/18 06:13:43;;;;;;;;;;;;;;;;;;6264459;22;19918;-82
2023/01/18 06:16:10;;;;;;;;;;;;;;;;;;6291690;22;19921;-82
2023/01/18 06:18:38;;;;;;;;;;;;;;;;;;6269550;22;19919;-82
2023/01/18 06:21:04;;;;;;;;;;;;;;;;;;6269092;22;19941;-82
2023/01/18 06:23:30;;;;;;;;;;;;;;;;;;6298949;22;20331;-82
2023/01/18 06:25:56;;;;;;;;;;;;;;;;;;6296896;22;19918;-82
2023/01/18 06:28:22;;;;;;;;;;;;;;;;;;6297544;22;19929;-82
2023/01/18 06:30:50;;;;;;;;;;;;;;;;;;6298397;22;19972;-82
2023/01/18 06:33:16;;;;;;;;;;;;;;;;;;6267061;22;20403;-81
2023/01/18 06:35:42;;;;;;;;;;;;;;;;;;6293336;22;20097;-82
2023/01/18 06:38:08;;;;;;;;;;;;;;;;;;6323839;22;19914;-82
2023/01/18 06:40:34;;;;;;;;;;;;;;;;;;6295740;22;19925;-82
2023/01/18 06:43:00;;;;;;;;;;;;;;;;;;6296952;22;19922;-82
2023/01/18 06:45:28;;;;;;;;;;;;;;;;;;6272129;22;20220;-82
2023/01/18 06:47:54;;;;;;;;;;;;;;;;;;6269239;22;19925;-82
2023/01/18 06:50:20;;;;;;;;;;;;;;;;;;6294663;22;19915;-82
2023/01/18 06:52:46;;;;;;;;;;;;;;;;;;6272456;22;19923;-82
2023/01/18 06:55:11;;;;;;;;;;;;;;;;;;6271335;22;19922;-84
2023/01/18 06:57:37;;;;;;;;;;;;;;;;;;6274087;22;19918;-85
2023/01/18 07:00:05;;;;;;;;;;;;;;;;;;6297263;22;20353;-85
2023/01/18 07:02:31;;;;;;;;;;;;;;;;;;6293288;22;19919;-84
2023/01/18 07:17:49;;;;;;;;;;;;;;;;;;6262419;22;19920;-83
2023/01/18 07:20:15;;;;;;;;;;;;;;;;;;6206325;22;19919;-83
2023/01/18 07:22:41;;;;;;;;;;;;;;;;;;6212036;22;19958;-83
2023/01/18 07:25:07;;;;;;;;;;;;;;;;;;6231888;22;19919;-83
2023/01/18 07:27:33;;;;;;;;;;;;;;;;;;6213752;22;20505;-83
2023/01/18 07:30:02;;;;;;;;;;;;;;;;;;6211791;22;19922;-83
2023/01/18 07:32:28;;;;;;;;;;;;;;;;;;6260851;22;19919;-83
2023/01/18 07:34:54;;;;;;;;;;;;;;;;;;6237815;22;19919;-83
2023/01/18 07:37:20;;;;;;;;;;;;;;;;;;6232973;22;20574;-83
2023/01/18 07:39:46;;;;;;;;;;;;;;;;;;6238347;22;19938;-83
2023/01/18 07:42:12;;;;;;;;;;;;;;;;;;6236776;22;19959;-83
2023/01/18 07:44:38;;;;;;;;;;;;;;;;;;6266741;22;19923;-83
2023/01/18 07:47:04;;;;;;;;;;;;;;;;;;6260364;22;20585;-83
2023/01/18 07:49:29;;;;;;;;;;;;;;;;;;6237597;22;20295;-83
2023/01/18 07:51:55;;;;;;;;;;;;;;;;;;6265106;22;20013;-83
2023/01/18 07:54:21;;;;;;;;;;;;;;;;;;6264868;22;19919;-83
2023/01/18 07:56:47;;;;;;;;;;;;;;;;;;6266652;22;20321;-83
2023/01/18 07:59:14;;;;;;;;;;;;;;;;;;6210936;22;20287;-83
2023/01/18 08:01:40;;;;;;;;;;;;;;;;;;6234050;22;19919;-83
2023/01/18 08:04:06;;;;;;;;;;;;;;;;;;6212138;22;19930;-83
2023/01/18 08:06:32;;;;;;;;;;;;;;;;;;6212561;22;19921;-83
2023/01/18 08:08:58;;;;;;;;;;;;;;;;;;6237432;22;20346;-83
2023/01/18 08:11:24;;;;;;;;;;;;;;;;;;6209653;22;20327;-83
2023/01/18 08:13:51;;;;;;;;;;;;;;;;;;6211668;22;19962;-83
2023/01/18 08:16:17;;;;;;;;;;;;;;;;;;6234835;22;19919;-83
2023/01/18 08:18:44;;;;;;;;;;;;;;;;;;6237623;22;20260;-83
2023/01/18 08:21:11;;;;;;;;;;;;;;;;;;6263649;22;19919;-83
2023/01/18 08:23:37;;;;;;;;;;;;;;;;;;6211130;22;19919;-83
2023/01/18 08:26:03;;;;;;;;;;;;;;;;;;6236397;22;19923;-83
2023/01/18 08:28:29;;;;;;;;;;;;;;;;;;6237032;22;20065;-84
2023/01/18 08:30:55;;;;;;;;;;;;;;;;;;6213947;22;19926;-83
2023/01/18 08:33:21;;;;;;;;;;;;;;;;;;6236357;22;19919;-83
2023/01/18 08:35:47;;;;;;;;;;;;;;;;;;6236943;22;19920;-83
2023/01/18 08:38:13;;;;;;;;;;;;;;;;;;6236756;22;19949;-83
2023/01/18 08:40:39;;;;;;;;;;;;;;;;;;6214015;22;20474;-83
2023/01/18 08:43:05;;;;;;;;;;;;;;;;;;6211393;22;19923;-83
2023/01/18 08:45:31;;;;;;;;;;;;;;;;;;6267023;22;19919;-83
2023/01/18 08:47:57;;;;;;;;;;;;;;;;;;6265985;22;19923;-83
2023/01/18 08:50:23;;;;;;;;;;;;;;;;;;6265426;22;19919;-83
2023/01/18 08:52:51;;;;;;;;;;;;;;;;;;6265906;22;20221;-83
2023/01/18 08:55:17;;;;;;;;;;;;;;;;;;6238104;22;19922;-83
2023/01/18 08:57:43;;;;;;;;;;;;;;;;;;6212569;22;19919;-83
2023/01/18 09:00:09;;;;;;;;;;;;;;;;;;6235706;22;19922;-83
2023/01/18 09:02:35;;;;;;;;;;;;;;;;;;6237891;22;20337;-83
2023/01/18 09:05:01;;;;;;;;;;;;;;;;;;6238753;22;19919;-83
2023/01/18 09:07:27;;;;;;;;;;;;;;;;;;6213168;22;19920;-83
2023/01/18 09:09:53;;;;;;;;;;;;;;;;;;6213918;22;20000;-83
2023/01/18 09:12:18;;;;;;;;;;;;;;;;;;6210676;22;19915;-83
2023/01/18 09:14:44;;;;;;;;;;;;;;;;;;6212267;22;19919;-83
2023/01/18 09:17:10;;;;;;;;;;;;;;;;;;6210472;22;19953;-83
2023/01/18 09:19:36;;;;;;;;;;;;;;;;;;6213313;22;19915;-83
2023/01/18 09:22:02;;;;;;;;;;;;;;;;;;6212974;22;19994;-83
2023/01/18 09:24:28;;;;;;;;;;;;;;;;;;6215330;22;19926;-83
2023/01/18 09:26:54;;;;;;;;;;;;;;;;;;6214844;22;20260;-83
2023/01/18 09:29:21;;;;;;;;;;;;;;;;;;6236220;22;20430;-83
2023/01/18 09:31:48;;;;;;;;;;;;;;;;;;6212755;22;20325;-83
2023/01/18 09:34:14;;;;;;;;;;;;;;;;;;6235947;22;20340;-83
2023/01/18 09:36:39;;;;;;;;;;;;;;;;;;6214548;22;20056;-83
2023/01/18 09:39:05;;;;;;;;;;;;;;;;;;6210632;22;19919;-83
2023/01/18 09:41:32;;;;;;;;;;;;;;;;;;6213828;22;20328;-83
2023/01/18 09:43:57;;;;;;;;;;;;;;;;;;6212458;22;20195;-83
2023/01/18 09:46:24;;;;;;;;;;;;;;;;;;6211189;22;19946;-83
2023/01/18 09:48:50;;;;;;;;;;;;;;;;;;6211649;22;20306;-83
2023/01/18 09:51:19;;;;;;;;;;;;;;;;;;6211138;22;19951;-83
2023/01/18 09:53:45;;;;;;;;;;;;;;;;;;6238575;22;19915;-83
2023/01/18 09:56:11;;;;;;;;;;;;;;;;;;6234824;22;20226;-83
2023/01/18 09:58:37;;;;;;;;;;;;;;;;;;6235189;22;19919;-83
2023/01/18 10:01:03;;;;;;;;;;;;;;;;;;6205914;22;20006;-84
2023/01/18 10:03:30;;;;;;;;;;;;;;;;;;6238432;22;19934;-83
2023/01/18 10:06:07;;;;;;;;;;;;;;;;;;6213224;22;19921;-84
2023/01/18 10:08:33;;;;;;;;;;;;;;;;;;6213857;22;20246;-84
2023/01/18 10:10:59;;;;;;;;;;;;;;;;;;6213476;22;19941;-84
2023/01/18 10:13:25;;;;;;;;;;;;;;;;;;6263641;22;19919;-84
2023/01/18 10:15:51;;;;;;;;;;;;;;;;;;6211372;22;19965;-83
2023/01/18 10:18:17;;;;;;;;;;;;;;;;;;6235581;22;19934;-84
2023/01/18 10:20:43;;;;;;;;;;;;;;;;;;6212932;22;20364;-84
2023/01/18 10:23:09;;;;;;;;;;;;;;;;;;6264178;22;19923;-83
2023/01/18 10:25:35;;;;;;;;;;;;;;;;;;6239601;22;19937;-84
2023/01/18 10:28:02;;;;;;;;;;;;;;;;;;6264071;22;19984;-84
2023/01/18 10:30:28;;;;;;;;;;;;;;;;;;6243797;22;19923;-84
2023/01/18 10:32:54;;;;;;;;;;;;;;;;;;6269922;22;19919;-83
2023/01/18 10:35:22;;;;;;;;;;;;;;;;;;6268928;22;20261;-84
2023/01/18 10:37:48;;;;;;;;;;;;;;;;;;6269897;22;20036;-83
2023/01/18 10:40:14;;;;;;;;;;;;;;;;;;6267821;22;20536;-84
2023/01/18 10:42:40;;;;;;;;;;;;;;;;;;6241047;22;20801;-83
2023/01/18 10:45:06;;;;;;;;;;;;;;;;;;6240973;22;19982;-83
2023/01/18 10:47:32;;;;;;;;;;;;;;;;;;6271048;22;19926;-83
2023/01/18 10:49:58;;;;;;;;;;;;;;;;;;6272210;22;20327;-83
2023/01/18 10:52:27;;;;;;;;;;;;;;;;;;6214854;22;20239;-83
2023/01/18 10:54:54;;;;;;;;;;;;;;;;;;6215575;22;19997;-83
2023/01/18 10:57:20;;;;;;;;;;;;;;;;;;6209999;22;20888;-83
2023/01/18 10:59:46;;;;;;;;;;;;;;;;;;6215284;22;19986;-83
2023/01/18 11:02:12;;;;;;;;;;;;;;;;;;6210830;22;19965;-83
2023/01/18 11:04:40;;;;;;;;;;;;;;;;;;6239858;22;19919;-83
2023/01/18 11:07:06;;;;;;;;;;;;;;;;;;6236766;22;19916;-83
2023/01/18 11:09:32;;;;;;;;;;;;;;;;;;6215710;22;19915;-83
2023/01/18 11:14:43;;;;;;;;;;;;;;;;;;6241117;22;19926;-83
2023/01/18 11:17:09;;;;;;;;;;;;;;;;;;6267302;22;20328;-83
2023/01/18 11:19:35;;;;;;;;;;;;;;;;;;6242460;22;19919;-83
2023/01/18 11:22:02;;;;;;;;;;;;;;;;;;6239546;22;19919;-83
2023/01/18 11:24:28;;;;;;;;;;;;;;;;;;6270057;22;19949;-83
2023/01/18 11:26:54;;;;;;;;;;;;;;;;;;6216817;22;20327;-83
2023/01/18 11:29:20;;;;;;;;;;;;;;;;;;6209615;22;20336;-83
2023/01/18 11:31:46;;;;;;;;;;;;;;;;;;6238129;22;19919;-83
2023/01/18 11:34:12;;;;;;;;;;;;;;;;;;6213446;22;19923;-83
2023/01/18 11:36:38;;;;;;;;;;;;;;;;;;6262449;22;19994;-83
2023/01/18 11:39:04;;;;;;;;;;;;;;;;;;6236223;22;19939;-83
2023/01/18 11:41:30;;;;;;;;;;;;;;;;;;6239621;22;19923;-83
2023/01/18 11:43:56;;;;;;;;;;;;;;;;;;6266170;22;19997;-83
2023/01/18 11:46:22;;;;;;;;;;;;;;;;;;6237515;22;19919;-83
2023/01/18 11:48:48;;;;;;;;;;;;;;;;;;6209614;22;19919;-84
2023/01/18 11:51:16;;;;;;;;;;;;;;;;;;6201733;22;20244;-84
2023/01/18 11:53:42;;;;;;;;;;;;;;;;;;6240782;22;19986;-84
2023/01/18 11:56:08;;;;;;;;;;;;;;;;;;6262696;22;19919;-84
2023/01/18 11:58:34;;;;;;;;;;;;;;;;;;6237254;22;20311;-84
2023/01/18 12:01:00;;;;;;;;;;;;;;;;;;6264370;22;20364;-84
2023/01/18 12:03:26;;;;;;;;;;;;;;;;;;6211496;22;19970;-84
2023/01/18 12:05:53;;;;;;;;;;;;;;;;;;6264155;22;19970;-84
2023/01/18 12:08:19;;;;;;;;;;;;;;;;;;6209284;22;19919;-83
2023/01/18 12:10:45;;;;;;;;;;;;;;;;;;6212702;22;20394;-83
2023/01/18 12:13:11;;;;;;;;;;;;;;;;;;6261379;22;19915;-83
2023/01/18 12:15:37;;;;;;;;;;;;;;;;;;6265741;22;20042;-83
2023/01/18 12:18:05;;;;;;;;;;;;;;;;;;6234292;22;19927;-84
2023/01/18 12:20:31;;;;;;;;;;;;;;;;;;6238182;22;19966;-83
2023/01/18 12:22:57;;;;;;;;;;;;;;;;;;6238400;22;19923;-84
2023/01/18 12:25:24;;;;;;;;;;;;;;;;;;6261878;22;19923;-83
2023/01/18 12:27:50;;;;;;;;;;;;;;;;;;6237770;22;20354;-83
2023/01/18 12:30:16;;;;;;;;;;;;;;;;;;6237468;22;19919;-83
2023/01/18 12:32:42;;;;;;;;;;;;;;;;;;6212215;22;20332;-83
2023/01/18 12:35:08;;;;;;;;;;;;;;;;;;6232001;22;20426;-83
2023/01/18 12:37:34;;;;;;;;;;;;;;;;;;6262894;22;19943;-84
2023/01/18 12:40:03;;;;;;;;;;;;;;;;;;6210177;22;19919;-84
2023/01/18 12:42:29;;;;;;;;;;;;;;;;;;6262595;22;20033;-84
2023/01/18 12:44:55;;;;;;;;;;;;;;;;;;6237710;22;19965;-85
2023/01/18 12:47:21;;;;;;;;;;;;;;;;;;6210670;22;19919;-85
2023/01/18 12:49:47;;;;;;;;;;;;;;;;;;6212554;22;19915;-84
2023/01/18 12:52:13;;;;;;;;;;;;;;;;;;6209480;22;19930;-84
2023/01/18 12:54:39;;;;;;;;;;;;;;;;;;6235835;22;19919;-84
2023/01/18 12:57:05;;;;;;;;;;;;;;;;;;6210906;22;19982;-84
2023/01/18 12:59:31;;;;;;;;;;;;;;;;;;6236500;22;19915;-84
2023/01/18 13:01:59;;;;;;;;;;;;;;;;;;6238418;22;20373;-84
2023/01/18 13:04:25;;;;;;;;;;;;;;;;;;6262951;22;19923;-85
2023/01/18 13:06:51;;;;;;;;;;;;;;;;;;6209763;22;19964;-84
2023/01/18 13:09:16;;;;;;;;;;;;;;;;;;6259636;22;19919;-84
2023/01/18 13:11:42;;;;;;;;;;;;;;;;;;6236884;22;19926;-84
2023/01/18 13:14:08;;;;;;;;;;;;;;;;;;6209759;22;19923;-84
2023/01/18 13:16:34;;;;;;;;;;;;;;;;;;6211777;22;20248;-84
2023/01/18 13:19:00;;;;;;;;;;;;;;;;;;6212054;22;19923;-84
2023/01/18 13:21:26;;;;;;;;;;;;;;;;;;6235451;22;19919;-84
2023/01/18 13:23:52;;;;;;;;;;;;;;;;;;6213044;22;20001;-84
2023/01/18 13:26:18;;;;;;;;;;;;;;;;;;6234871;22;19922;-84
2023/01/18 13:28:45;;;;;;;;;;;;;;;;;;6236177;22;20248;-84
2023/01/18 13:31:11;;;;;;;;;;;;;;;;;;6208798;22;20340;-84
2023/01/18 13:33:38;;;;;;;;;;;;;;;;;;6237302;22;19964;-84
2023/01/18 13:36:04;;;;;;;;;;;;;;;;;;6206198;22;19915;-84
2023/01/18 13:38:34;;;;;;;;;;;;;;;;;;6209212;22;19919;-84
2023/01/18 13:41:00;;;;;;;;;;;;;;;;;;6211985;22;19923;-84
2023/01/18 13:43:26;;;;;;;;;;;;;;;;;;6209169;22;19924;-84
2023/01/18 13:45:52;;;;;;;;;;;;;;;;;;6210739;22;20328;-84
2023/01/18 13:48:19;;;;;;;;;;;;;;;;;;6209289;22;19993;-84
2023/01/18 13:50:46;;;;;;;;;;;;;;;;;;6209928;22;19990;-84
2023/01/18 13:53:12;;;;;;;;;;;;;;;;;;6209406;22;19919;-84
2023/01/18 13:55:38;;;;;;;;;;;;;;;;;;6212155;22;19931;-84
2023/01/18 13:58:04;;;;;;;;;;;;;;;;;;6226935;22;19916;-84
2023/01/18 14:00:30;;;;;;;;;;;;;;;;;;6235377;22;20230;-84
2023/01/18 14:02:56;;;;;;;;;;;;;;;;;;6235581;22;19954;-84
2023/01/18 14:05:22;;;;;;;;;;;;;;;;;;6234797;22;19919;-84
2023/01/18 14:07:48;;;;;;;;;;;;;;;;;;6210450;22;20340;-84
2023/01/18 14:10:14;;;;;;;;;;;;;;;;;;6259211;22;19924;-84
2023/01/18 14:12:40;;;;;;;;;;;;;;;;;;6260892;22;19993;-84
2023/01/18 14:15:08;;;;;;;;;;;;;;;;;;6261294;22;20459;-83
2023/01/18 14:17:34;;;;;;;;;;;;;;;;;;6210853;22;19923;-83
2023/01/18 14:20:00;;;;;;;;;;;;;;;;;;6238278;22;20324;-84
2023/01/18 14:22:26;;;;;;;;;;;;;;;;;;6235559;22;19963;-83
2023/01/18 14:24:52;;;;;;;;;;;;;;;;;;6263606;22;19919;-84
2023/01/18 14:27:18;;;;;;;;;;;;;;;;;;6261481;22;19919;-84
2023/01/18 14:29:44;;;;;;;;;;;;;;;;;;6264561;22;19986;-84
2023/01/18 14:32:10;;;;;;;;;;;;;;;;;;6262155;22;20240;-84
2023/01/18 14:34:36;;;;;;;;;;;;;;;;;;6262763;22;19953;-84
2023/01/18 14:37:02;;;;;;;;;;;;;;;;;;6261216;22;19919;-84
2023/01/18 14:39:31;;;;;;;;;;;;;;;;;;6237601;22;20336;-84
2023/01/18 14:41:57;;;;;;;;;;;;;;;;;;6237585;22;20017;-83
2023/01/18 14:44:23;;;;;;;;;;;;;;;;;;6261683;22;19972;-83
2023/01/18 14:46:49;;;;;;;;;;;;;;;;;;6265948;22;19986;-84
2023/01/18 14:49:15;;;;;;;;;;;;;;;;;;6234741;22;19920;-84
2023/01/18 14:51:41;;;;;;;;;;;;;;;;;;6238143;22;19919;-84
2023/01/18 14:54:07;;;;;;;;;;;;;;;;;;6263862;22;19973;-84
2023/01/18 14:56:33;;;;;;;;;;;;;;;;;;6265720;22;19994;-84
2023/01/18 14:59:02;;;;;;;;;;;;;;;;;;6264673;22;19919;-84
2023/01/18 15:01:28;;;;;;;;;;;;;;;;;;6258076;22;20379;-84
2023/01/18 15:03:54;;;;;;;;;;;;;;;;;;6208719;22;20325;-84
2023/01/18 15:06:20;;;;;;;;;;;;;;;;;;6260088;22;19946;-84
2023/01/18 15:08:47;;;;;;;;;;;;;;;;;;6261354;22;19920;-84
2023/01/18 15:11:13;;;;;;;;;;;;;;;;;;6230562;22;20009;-84
2023/01/18 15:13:40;;;;;;;;;;;;;;;;;;6210412;22;19916;-84
2023/01/18 15:16:09;;;;;;;;;;;;;;;;;;6230388;22;19988;-84
2023/01/18 15:18:35;;;;;;;;;;;;;;;;;;6235267;22;20279;-84
2023/01/18 15:21:01;;;;;;;;;;;;;;;;;;6261165;22;19950;-84
2023/01/18 15:23:29;;;;;;;;;;;;;;;;;;6237250;22;19930;-84
2023/01/18 15:25:55;;;;;;;;;;;;;;;;;;6237775;22;19998;-84
2023/01/18 15:28:21;;;;;;;;;;;;;;;;;;6261801;22;19919;-84
2023/01/18 15:30:47;;;;;;;;;;;;;;;;;;6234735;22;19922;-84
2023/01/18 15:33:13;;;;;;;;;;;;;;;;;;6208581;22;19923;-84
2023/01/18 15:35:39;;;;;;;;;;;;;;;;;;6266022;22;19926;-84
2023/01/18 15:38:05;;;;;;;;;;;;;;;;;;6261560;22;19942;-84
2023/01/18 15:40:31;;;;;;;;;;;;;;;;;;6237508;22;19919;-84
2023/01/18 15:42:57;;;;;;;;;;;;;;;;;;6233885;22;19927;-83
2023/01/18 15:45:23;;;;;;;;;;;;;;;;;;6261018;22;20458;-84
2023/01/18 15:47:49;;;;;;;;;;;;;;;;;;6237220;22;19919;-84
2023/01/18 15:50:15;;;;;;;;;;;;;;;;;;6235061;22;19926;-84
2023/01/18 15:52:41;;;;;;;;;;;;;;;;;;6261659;22;19973;-84
2023/01/18 15:58:13;;;;;;;;;;;;;;;;;;6213199;22;20638;-84
2023/01/18 16:00:39;;;;;;;;;;;;;;;;;;6229363;22;19923;-84
2023/01/18 16:03:05;;;;;;;;;;;;;;;;;;6205439;22;19969;-84
2023/01/18 16:05:31;;;;;;;;;;;;;;;;;;6212200;22;19916;-84
2023/01/18 16:07:58;;;;;;;;;;;;;;;;;;6263063;22;20492;-84
2023/01/18 16:10:29;;;;;;;;;;;;;;;;;;6206073;22;19919;-84
2023/01/18 16:12:55;;;;;;;;;;;;;;;;;;6206947;22;19919;-84
2023/01/18 16:15:27;;;;;;;;;;;;;;;;;;6255955;22;20373;-84
2023/01/18 16:17:53;;;;;;;;;;;;;;;;;;6205786;22;19994;-84
2023/01/18 16:20:19;;;;;;;;;;;;;;;;;;6231553;22;19947;-84
2023/01/18 16:22:45;;;;;;;;;;;;;;;;;;6208250;22;19930;-84
2023/01/18 16:25:11;;;;;;;;;;;;;;;;;;6226566;22;19919;-84
2023/01/18 16:27:37;;;;;;;;;;;;;;;;;;6232286;22;19937;-85
2023/01/18 16:30:04;;;;;;;;;;;;;;;;;;6204938;22;19923;-84
2023/01/18 16:32:30;;;;;;;;;;;;;;;;;;6223793;22;20395;-85
2023/01/18 16:34:56;;;;;;;;;;;;;;;;;;6206531;22;19926;-84
2023/01/18 16:37:22;;;;;;;;;;;;;;;;;;6257692;22;19919;-85
2023/01/18 16:39:48;;;;;;;;;;;;;;;;;;6236863;22;19965;-85
2023/01/18 16:45:38;;;;;;;;;;;;;;;;;;6314769;22;20252;-84
2023/01/18 16:47:43;;;;;;;;;;;;;;;;;;6282923;22;19922;-84
2023/01/18 16:50:27;;;;;;;;;;;;;;;;;;6269653;22;19921;-84
2023/01/18 16:53:08;;;;;;;;;;;;;;;;;;6267790;22;19926;-83
2023/01/18 16:58:38;;;;;;;;;;;;;;;;;;6313060;22;20496;-84
2023/01/18 17:01:09;;;;;;;;;;;;;;;;;;6270454;22;19997;-84
2023/01/18 17:03:39;;;;;;;;;;;;;;;;;;6270119;22;19923;-83
2023/01/18 17:06:08;;;;;;;;;;;;;;;;;;6264688;22;19919;-83
2023/01/18 17:11:37;;;;;;;;;;;;;;;;;;6331232;22;19917;-83
2023/01/18 17:14:21;;;;;;;;;;;;;;;;;;6267799;22;20393;-83
2023/01/18 17:16:50;;;;;;;;;;;;;;;;;;6294129;22;19922;-83
2023/01/18 17:19:16;;;;;;;;;;;;;;;;;;6294211;22;20378;-84
2023/01/18 17:21:51;;;;;;;;;;;;;;;;;;6270170;22;19918;-85
2023/01/18 17:24:23;;;;;;;;;;;;;;;;;;6268794;22;20138;-83
2023/01/18 17:26:55;;;;;;;;;;;;;;;;;;6232954;22;19926;-84
2023/01/18 17:29:21;;;;;;;;;;;;;;;;;;6205922;22;19945;-85
2023/01/18 17:31:55;;;;;;;;;;;;;;;;;;6231507;22;19962;-85
2023/01/18 17:34:34;;;;;;;;;;;;;;;;;;6201062;23;19919;-84
2023/01/18 17:37:03;;;;;;;;;;;;;;;;;;6204732;22;19919;-83
2023/01/18 17:39:31;;;;;;;;;;;;;;;;;;6257459;22;20461;-84
2023/01/18 17:42:00;;;;;;;;;;;;;;;;;;6252948;22;19923;-88
2023/01/18 17:44:30;;;;;;;;;;;;;;;;;;6206836;22;19965;-83